createdAt,value
2023-05-15T00:01:24.157Z,11.60
2023-05-15T00:03:27.152Z,11.60
2023-05-15T00:05:29.910Z,11.70
2023-05-15T00:07:32.427Z,11.80
2023-05-15T00:09:34.909Z,11.80
2023-05-15T00:11:37.432Z,11.80
2023-05-15T00:13:39.939Z,11.50
2023-05-15T00:15:42.475Z,11.40
2023-05-15T00:17:45.080Z,11.30
2023-05-15T00:19:47.616Z,11.30
2023-05-15T00:21:50.100Z,11.40
2023-05-15T00:23:53.452Z,11.50
2023-05-15T00:25:55.956Z,11.60
2023-05-15T00:27:58.593Z,11.70
2023-05-15T00:30:01.073Z,11.70
2023-05-15T00:32:03.896Z,11.70
2023-05-15T00:34:06.475Z,11.80
2023-05-15T00:36:09.411Z,11.70
2023-05-15T00:38:11.900Z,11.80
2023-05-15T00:40:16.451Z,11.70
2023-05-15T00:42:19.363Z,11.70
2023-05-15T00:44:22.460Z,11.60
2023-05-15T00:46:25.858Z,11.60
2023-05-15T00:48:29.146Z,11.60
2023-05-15T00:50:33.212Z,11.50
2023-05-15T00:52:36.431Z,11.50
2023-05-15T00:54:38.888Z,11.20
2023-05-15T00:56:43.209Z,11.10
2023-05-15T00:58:47.231Z,11.20
2023-05-15T01:00:50.364Z,11.30
2023-05-15T01:02:53.602Z,11.30
2023-05-15T01:04:56.374Z,11.20
2023-05-15T01:06:58.988Z,11.20
2023-05-15T01:09:03.508Z,11.20
2023-05-15T01:11:07.557Z,11.20
2023-05-15T01:13:11.340Z,11.30
2023-05-15T01:17:29.429Z,11.40
2023-05-15T01:19:32.139Z,11.40
2023-05-15T01:21:52.346Z,11.30
2023-05-15T01:23:59.216Z,11.30
2023-05-15T01:26:09.901Z,11.20
2023-05-15T01:28:15.180Z,11.30
2023-05-15T01:30:20.129Z,11.40
2023-05-15T01:32:24.349Z,11.30
2023-05-15T01:34:29.383Z,11.30
2023-05-15T01:36:34.302Z,11.30
2023-05-15T01:38:39.742Z,11.30
2023-05-15T01:40:43.725Z,11.30
2023-05-15T01:42:49.564Z,11.30
2023-05-15T01:44:53.439Z,11.30
2023-05-15T01:46:57.639Z,11.30
2023-05-15T01:49:01.718Z,11.30
2023-05-15T01:51:06.217Z,11.30
2023-05-15T01:53:09.360Z,11.20
2023-05-15T01:55:12.662Z,11.20
2023-05-15T01:57:16.059Z,11.20
2023-05-15T01:59:19.023Z,11.10
2023-05-15T02:01:22.848Z,11.10
2023-05-15T02:03:26.070Z,11.00
2023-05-15T02:05:29.331Z,10.90
2023-05-15T02:07:32.872Z,10.90
2023-05-15T02:09:36.813Z,10.90
2023-05-15T02:11:39.847Z,10.90
2023-05-15T02:13:42.759Z,10.80
2023-05-15T02:15:45.371Z,10.70
2023-05-15T02:17:49.462Z,10.80
2023-05-15T02:19:52.112Z,10.80
2023-05-15T02:21:55.610Z,10.80
2023-05-15T02:23:58.334Z,10.80
2023-05-15T02:26:04.048Z,10.80
2023-05-15T02:28:07.812Z,10.80
2023-05-15T02:30:14.561Z,10.80
2023-05-15T02:32:20.916Z,10.70
2023-05-15T02:34:26.023Z,10.40
2023-05-15T02:36:30.680Z,10.30
2023-05-15T02:38:34.400Z,10.30
2023-05-15T02:40:37.430Z,10.30
2023-05-15T02:42:42.524Z,10.30
2023-05-15T02:44:46.655Z,10.30
2023-05-15T02:46:50.373Z,10.30
2023-05-15T02:48:53.681Z,10.40
2023-05-15T02:50:56.258Z,10.40
2023-05-15T02:53:05.164Z,10.30
2023-05-15T02:55:08.879Z,10.30
2023-05-15T02:57:11.562Z,10.40
2023-05-15T02:59:16.121Z,10.40
2023-05-15T03:01:18.681Z,10.30
2023-05-15T03:03:21.420Z,10.20
2023-05-15T03:05:24.111Z,10.20
2023-05-15T03:07:26.981Z,10.20
2023-05-15T03:09:29.475Z,10.20
2023-05-15T03:11:32.055Z,10.20
2023-05-15T03:13:34.676Z,10.20
2023-05-15T03:15:37.415Z,10.10
2023-05-15T03:19:54.292Z,10.10
2023-05-15T03:21:56.836Z,10.00
2023-05-15T03:23:59.346Z,10.00
2023-05-15T03:26:01.937Z,9.90
2023-05-15T03:28:04.526Z,10.00
2023-05-15T03:30:08.542Z,10.00
2023-05-15T03:32:11.325Z,10.00
2023-05-15T03:34:13.910Z,10.00
2023-05-15T03:36:21.328Z,10.00
2023-05-15T03:38:25.794Z,10.00
2023-05-15T03:40:32.224Z,10.00
2023-05-15T03:42:35.467Z,10.00
2023-05-15T03:44:38.182Z,10.00
2023-05-15T03:46:40.996Z,10.00
2023-05-15T03:48:49.058Z,10.00
2023-05-15T03:50:52.837Z,10.00
2023-05-15T03:52:55.407Z,10.00
2023-05-15T03:54:58.191Z,10.00
2023-05-15T03:57:01.519Z,10.00
2023-05-15T03:59:07.114Z,9.90
2023-05-15T04:01:09.916Z,9.80
2023-05-15T04:03:12.727Z,9.80
2023-05-15T04:05:15.602Z,9.70
2023-05-15T04:07:18.388Z,9.90
2023-05-15T04:09:20.856Z,9.90
2023-05-15T04:11:23.333Z,9.90
2023-05-15T04:13:26.020Z,10.00
2023-05-15T04:15:28.674Z,10.00
2023-05-15T04:17:31.524Z,10.00
2023-05-15T04:19:34.064Z,10.00
2023-05-15T04:21:36.572Z,10.10
2023-05-15T04:23:40.969Z,10.10
2023-05-15T04:25:45.579Z,10.20
2023-05-15T04:27:48.654Z,10.30
2023-05-15T04:29:51.174Z,10.30
2023-05-15T04:31:53.716Z,10.60
2023-05-15T04:33:56.263Z,10.40
2023-05-15T04:35:58.955Z,10.50
2023-05-15T04:38:01.786Z,10.50
2023-05-15T04:40:06.645Z,10.60
2023-05-15T04:42:09.217Z,10.70
2023-05-15T04:44:11.896Z,10.80
2023-05-15T04:46:14.445Z,10.90
2023-05-15T04:48:18.744Z,11.10
2023-05-15T04:50:21.339Z,11.20
2023-05-15T04:52:23.822Z,11.30
2023-05-15T04:54:26.555Z,11.40
2023-05-15T04:56:29.109Z,11.40
2023-05-15T04:58:31.623Z,11.40
2023-05-15T05:00:34.407Z,11.50
2023-05-15T05:02:36.900Z,11.50
2023-05-15T05:04:41.279Z,11.50
2023-05-15T05:06:43.839Z,11.60
2023-05-15T05:08:46.318Z,11.70
2023-05-15T05:10:48.806Z,11.70
2023-05-15T05:12:52.452Z,11.70
2023-05-15T05:14:55.934Z,11.80
2023-05-15T05:16:58.418Z,11.80
2023-05-15T05:19:00.968Z,11.80
2023-05-15T05:21:03.728Z,11.80
2023-05-15T05:23:06.430Z,11.80
2023-05-15T05:25:09.420Z,11.90
2023-05-15T05:27:11.892Z,11.80
2023-05-15T05:29:14.392Z,11.80
2023-05-15T05:31:16.923Z,11.80
2023-05-15T05:35:37.441Z,11.70
2023-05-15T05:37:41.225Z,11.70
2023-05-15T05:39:44.160Z,11.70
2023-05-15T05:41:46.647Z,11.80
2023-05-15T05:43:49.152Z,11.80
2023-05-15T05:45:51.779Z,11.80
2023-05-15T05:47:54.873Z,11.80
2023-05-15T05:49:57.393Z,11.90
2023-05-15T05:52:05.323Z,11.90
2023-05-15T05:54:07.949Z,11.90
2023-05-15T05:56:10.667Z,11.90
2023-05-15T05:58:24.102Z,12.00
2023-05-15T06:00:18.933Z,12.00
2023-05-15T06:02:21.449Z,12.00
2023-05-15T06:04:24.066Z,12.00
2023-05-15T06:06:26.640Z,12.00
2023-05-15T06:08:29.706Z,12.10
2023-05-15T06:10:32.295Z,12.10
2023-05-15T06:12:34.857Z,12.10
2023-05-15T06:14:37.369Z,12.20
2023-05-15T06:16:39.962Z,12.30
2023-05-15T06:18:42.638Z,12.30
2023-05-15T06:20:46.379Z,12.30
2023-05-15T06:22:48.842Z,12.30
2023-05-15T06:24:51.431Z,12.30
2023-05-15T06:26:54.023Z,12.50
2023-05-15T06:28:56.499Z,12.50
2023-05-15T06:30:59.042Z,12.60
2023-05-15T06:33:01.636Z,12.70
2023-05-15T06:35:04.613Z,12.70
2023-05-15T06:37:07.240Z,12.80
2023-05-15T06:39:10.146Z,12.90
2023-05-15T06:41:12.728Z,12.90
2023-05-15T06:43:15.224Z,12.90
2023-05-15T06:45:17.935Z,13.00
2023-05-15T06:47:20.733Z,13.10
2023-05-15T06:51:53.821Z,13.20
2023-05-15T06:54:18.623Z,13.30
2023-05-15T06:56:36.513Z,13.40
2023-05-15T06:58:42.267Z,13.50
2023-05-15T07:00:46.196Z,13.60
2023-05-15T07:02:49.536Z,13.60
2023-05-15T07:04:52.425Z,13.60
2023-05-15T07:06:55.495Z,13.70
2023-05-15T07:08:58.839Z,13.70
2023-05-15T07:11:02.261Z,13.60
2023-05-15T07:15:20.673Z,13.60
2023-05-15T07:17:24.552Z,13.60
2023-05-15T07:19:30.866Z,13.60
2023-05-15T07:21:34.564Z,13.60
2023-05-15T07:23:37.806Z,13.60
2023-05-15T07:25:40.850Z,13.60
2023-05-15T07:27:44.016Z,13.40
2023-05-15T07:29:47.250Z,13.40
2023-05-15T07:31:51.020Z,13.40
2023-05-15T07:33:54.249Z,13.40
2023-05-15T07:35:56.801Z,13.40
2023-05-15T07:38:00.067Z,13.40
2023-05-15T07:40:03.839Z,13.40
2023-05-15T07:42:06.883Z,13.50
2023-05-15T07:44:10.004Z,13.50
2023-05-15T07:46:13.610Z,13.60
2023-05-15T07:48:17.151Z,13.70
2023-05-15T07:50:20.111Z,13.90
2023-05-15T07:52:22.665Z,13.90
2023-05-15T07:54:26.188Z,13.90
2023-05-15T07:56:28.725Z,14.00
2023-05-15T07:58:31.405Z,14.00
2023-05-15T08:00:33.975Z,14.00
2023-05-15T08:02:36.577Z,14.00
2023-05-15T08:04:39.308Z,14.10
2023-05-15T08:06:42.720Z,14.10
2023-05-15T08:08:46.400Z,14.00
2023-05-15T08:10:48.995Z,13.90
2023-05-15T08:12:51.526Z,13.90
2023-05-15T08:14:54.980Z,13.90
2023-05-15T08:16:57.661Z,13.90
2023-05-15T08:19:02.883Z,13.90
2023-05-15T08:21:05.424Z,14.00
2023-05-15T08:23:08.086Z,14.10
2023-05-15T08:25:11.038Z,14.20
2023-05-15T08:27:13.649Z,14.20
2023-05-15T08:29:17.126Z,14.20
2023-05-15T08:31:19.740Z,14.20
2023-05-15T08:33:22.450Z,14.30
2023-05-15T08:35:25.154Z,14.30
2023-05-15T08:37:27.987Z,14.40
2023-05-15T08:39:30.559Z,14.50
2023-05-15T08:41:40.542Z,14.50
2023-05-15T08:43:39.244Z,14.50
2023-05-15T08:45:41.874Z,14.50
2023-05-15T08:47:44.665Z,14.40
2023-05-15T08:49:50.403Z,14.50
2023-05-15T08:51:53.213Z,14.50
2023-05-15T08:53:55.961Z,14.60
2023-05-15T08:55:58.790Z,14.60
2023-05-15T08:58:01.355Z,14.50
2023-05-15T09:00:08.963Z,14.40
2023-05-15T09:02:11.757Z,14.50
2023-05-15T09:04:14.426Z,14.40
2023-05-15T09:06:17.077Z,14.40
2023-05-15T09:08:21.668Z,14.40
2023-05-15T09:10:24.297Z,14.50
2023-05-15T09:12:26.959Z,14.60
2023-05-15T09:14:29.643Z,14.70
2023-05-15T09:16:32.163Z,14.90
2023-05-15T09:18:35.004Z,14.90
2023-05-15T09:20:38.116Z,14.90
2023-05-15T09:22:40.589Z,15.00
2023-05-15T09:24:43.174Z,15.20
2023-05-15T09:26:46.797Z,15.30
2023-05-15T09:28:49.435Z,15.60
2023-05-15T09:30:53.764Z,15.90
2023-05-15T09:32:56.710Z,15.90
2023-05-15T09:34:59.306Z,16.00
2023-05-15T09:37:02.610Z,15.90
2023-05-15T09:39:05.164Z,15.90
2023-05-15T09:41:08.346Z,15.90
2023-05-15T09:43:11.689Z,15.90
2023-05-15T09:45:17.851Z,16.00
2023-05-15T09:47:20.594Z,16.00
2023-05-15T09:49:23.382Z,16.10
2023-05-15T09:51:27.884Z,16.40
2023-05-15T09:53:31.176Z,16.40
2023-05-15T09:55:34.162Z,17.20
2023-05-15T09:57:37.641Z,16.50
2023-05-15T09:59:44.127Z,16.60
2023-05-15T10:01:48.060Z,16.60
2023-05-15T10:04:16.906Z,16.70
2023-05-15T10:06:33.119Z,16.70
2023-05-15T10:08:36.745Z,16.90
2023-05-15T10:10:39.339Z,17.10
2023-05-15T10:12:41.855Z,17.40
2023-05-15T10:17:01.649Z,17.80
2023-05-15T10:19:08.317Z,18.00
2023-05-15T10:21:12.046Z,18.20
2023-05-15T10:23:15.477Z,18.30
2023-05-15T10:25:20.999Z,18.20
2023-05-15T10:27:23.920Z,18.20
2023-05-15T10:29:28.007Z,18.40
2023-05-15T10:31:31.080Z,18.10
2023-05-15T10:33:35.254Z,18.00
2023-05-15T10:35:39.664Z,18.10
2023-05-15T10:37:42.155Z,18.40
2023-05-15T10:39:45.916Z,18.60
2023-05-15T10:41:50.256Z,18.60
2023-05-15T10:43:53.352Z,18.80
2023-05-15T10:45:56.756Z,18.80
2023-05-15T10:47:59.714Z,19.10
2023-05-15T10:50:02.269Z,19.20
2023-05-15T10:52:05.662Z,19.20
2023-05-15T10:54:08.583Z,19.60
2023-05-15T10:56:13.232Z,19.80
2023-05-15T10:58:15.768Z,19.90
2023-05-15T11:00:28.809Z,20.00
2023-05-15T11:02:34.246Z,20.00
2023-05-15T11:04:37.509Z,19.90
2023-05-15T11:06:41.521Z,20.10
2023-05-15T11:08:45.757Z,20.10
2023-05-15T11:10:50.056Z,20.10
2023-05-15T11:12:56.700Z,20.10
2023-05-15T11:15:17.420Z,20.40
2023-05-15T11:17:19.957Z,20.10
2023-05-15T11:19:22.701Z,20.00
2023-05-15T11:21:25.349Z,20.10
2023-05-15T11:23:27.809Z,20.00
2023-05-15T11:25:31.129Z,20.10
2023-05-15T11:27:35.565Z,20.40
2023-05-15T11:29:38.045Z,20.60
2023-05-15T11:31:40.921Z,20.50
2023-05-15T11:33:43.480Z,20.60
2023-05-15T11:35:46.655Z,21.00
2023-05-15T11:37:49.958Z,20.90
2023-05-15T11:39:53.086Z,20.60
2023-05-15T11:41:56.189Z,20.50
2023-05-15T11:43:58.885Z,20.40
2023-05-15T11:46:05.069Z,20.30
2023-05-15T11:48:08.221Z,20.40
2023-05-15T11:50:11.547Z,20.20
2023-05-15T11:52:14.121Z,20.50
2023-05-15T11:54:17.315Z,20.40
2023-05-15T11:56:20.386Z,20.40
2023-05-15T11:58:23.621Z,20.10
2023-05-15T12:00:26.417Z,20.00
2023-05-15T12:02:29.134Z,20.00
2023-05-15T12:04:33.482Z,20.00
2023-05-15T12:06:36.005Z,19.90
2023-05-15T12:08:38.551Z,19.80
2023-05-15T12:10:42.120Z,19.50
2023-05-15T12:12:45.445Z,19.60
2023-05-15T12:14:47.956Z,19.50
2023-05-15T12:16:52.640Z,19.40
2023-05-15T12:18:57.416Z,19.30
2023-05-15T12:21:00.300Z,19.40
2023-05-15T12:23:03.929Z,19.40
2023-05-15T12:25:07.704Z,19.20
2023-05-15T12:27:10.600Z,19.20
2023-05-15T12:29:13.189Z,19.30
2023-05-15T12:31:16.853Z,19.30
2023-05-15T12:33:19.539Z,19.20
2023-05-15T12:35:22.016Z,19.10
2023-05-15T12:37:24.663Z,19.00
2023-05-15T12:42:10.201Z,18.80
2023-05-15T12:44:16.891Z,18.80
2023-05-15T12:46:22.585Z,18.70
2023-05-15T12:48:29.926Z,19.00
2023-05-15T12:50:33.127Z,20.00
2023-05-15T12:52:35.656Z,19.60
2023-05-15T12:54:40.459Z,19.80
2023-05-15T12:56:43.014Z,19.70
2023-05-15T12:58:45.616Z,19.50
2023-05-15T13:00:49.812Z,19.30
2023-05-15T13:02:54.544Z,19.30
2023-05-15T13:04:57.052Z,19.40
2023-05-15T13:07:01.335Z,19.70
2023-05-15T13:11:18.527Z,20.30
2023-05-15T13:13:21.057Z,20.30
2023-05-15T13:15:25.853Z,20.40
2023-05-15T13:17:30.081Z,20.50
2023-05-15T13:19:32.551Z,20.50
2023-05-15T13:21:35.483Z,20.60
2023-05-15T13:23:37.972Z,20.60
2023-05-15T13:25:40.450Z,20.50
2023-05-15T13:27:42.981Z,20.40
2023-05-15T13:29:46.039Z,20.30
2023-05-15T13:31:48.604Z,20.40
2023-05-15T13:33:51.222Z,20.40
2023-05-15T13:35:53.718Z,20.60
2023-05-15T13:37:56.621Z,20.70
2023-05-15T13:39:59.163Z,21.00
2023-05-15T13:42:01.702Z,21.20
2023-05-15T13:44:04.391Z,21.20
2023-05-15T13:46:07.016Z,21.20
2023-05-15T13:48:09.615Z,20.90
2023-05-15T13:50:12.880Z,20.80
2023-05-15T13:52:16.070Z,20.80
2023-05-15T13:54:18.543Z,20.50
2023-05-15T13:56:21.726Z,20.60
2023-05-15T13:58:26.129Z,20.50
2023-05-15T14:00:28.687Z,20.50
2023-05-15T14:02:31.975Z,20.70
2023-05-15T14:04:34.596Z,21.00
2023-05-15T14:06:37.239Z,21.20
2023-05-15T14:08:39.716Z,21.40
2023-05-15T14:10:43.133Z,21.50
2023-05-15T14:12:46.417Z,21.40
2023-05-15T14:14:49.789Z,21.20
2023-05-15T14:16:52.562Z,20.80
2023-05-15T14:18:55.574Z,21.00
2023-05-15T14:20:58.195Z,20.90
2023-05-15T14:23:00.826Z,21.00
2023-05-15T14:25:03.642Z,21.00
2023-05-15T14:27:06.412Z,20.90
2023-05-15T14:29:08.929Z,21.00
2023-05-15T14:31:12.462Z,21.00
2023-05-15T14:33:15.376Z,21.10
2023-05-15T14:35:20.157Z,21.10
2023-05-15T14:37:22.791Z,21.20
2023-05-15T14:39:25.387Z,21.10
2023-05-15T14:41:27.978Z,21.20
2023-05-15T14:43:30.496Z,20.90
2023-05-15T14:45:33.121Z,21.10
2023-05-15T14:47:35.880Z,21.20
2023-05-15T14:49:38.536Z,21.20
2023-05-15T14:51:41.636Z,21.20
2023-05-15T14:53:44.749Z,21.40
2023-05-15T14:55:47.297Z,21.60
2023-05-15T14:57:49.951Z,21.60
2023-05-15T14:59:52.497Z,21.70
2023-05-15T15:01:55.046Z,21.80
2023-05-15T15:03:57.662Z,21.90
2023-05-15T15:06:02.337Z,21.90
2023-05-15T15:08:06.093Z,21.90
2023-05-15T15:10:09.608Z,22.00
2023-05-15T15:12:12.207Z,22.00
2023-05-15T15:14:15.250Z,21.90
2023-05-15T15:16:17.818Z,21.90
2023-05-15T15:18:20.648Z,22.00
2023-05-15T15:20:24.773Z,21.60
2023-05-15T15:22:27.616Z,21.30
2023-05-15T15:24:30.117Z,21.00
2023-05-15T15:26:33.220Z,20.70
2023-05-15T15:28:35.857Z,20.70
2023-05-15T15:30:38.541Z,20.70
2023-05-15T15:32:41.124Z,20.90
2023-05-15T15:34:43.710Z,20.80
2023-05-15T15:36:46.271Z,20.90
2023-05-15T15:38:48.781Z,20.80
2023-05-15T15:40:52.370Z,20.60
2023-05-15T15:42:55.290Z,20.00
2023-05-15T15:44:58.215Z,19.50
2023-05-15T15:49:17.843Z,19.00
2023-05-15T15:51:20.383Z,18.70
2023-05-15T15:53:23.350Z,18.60
2023-05-15T15:55:25.789Z,18.50
2023-05-15T15:57:29.317Z,18.40
2023-05-15T15:59:31.770Z,18.40
2023-05-15T16:01:34.563Z,18.40
2023-05-15T16:03:37.149Z,18.40
2023-05-15T16:05:39.697Z,18.40
2023-05-15T16:07:42.196Z,18.40
2023-05-15T16:09:44.669Z,18.50
2023-05-15T16:11:47.223Z,18.60
2023-05-15T16:13:49.767Z,18.70
2023-05-15T16:15:52.273Z,18.70
2023-05-15T16:17:56.367Z,18.80
2023-05-15T16:19:58.999Z,18.90
2023-05-15T16:22:13.934Z,18.90
2023-05-15T16:24:16.431Z,18.80
2023-05-15T16:26:18.908Z,18.90
2023-05-15T16:30:48.957Z,19.10
2023-05-15T16:32:45.352Z,19.30
2023-05-15T16:34:47.932Z,19.30
2023-05-15T16:36:50.449Z,19.50
2023-05-15T16:38:53.633Z,19.40
2023-05-15T16:40:57.094Z,19.30
2023-05-15T16:42:59.608Z,19.10
2023-05-15T16:45:02.090Z,18.90
2023-05-15T16:47:05.178Z,18.70
2023-05-15T16:49:07.856Z,18.40
2023-05-15T16:51:10.374Z,18.30
2023-05-15T16:53:14.389Z,18.20
2023-05-15T16:55:18.308Z,18.00
2023-05-15T16:57:20.782Z,18.00
2023-05-15T16:59:23.839Z,18.00
2023-05-15T17:01:26.397Z,18.00
2023-05-15T17:03:30.463Z,18.10
2023-05-15T17:05:33.421Z,18.10
2023-05-15T17:07:35.900Z,18.20
2023-05-15T17:09:40.002Z,18.20
2023-05-15T17:11:42.493Z,18.10
2023-05-15T17:13:45.077Z,18.00
2023-05-15T17:15:49.115Z,18.00
2023-05-15T17:20:07.227Z,17.90
2023-05-15T17:22:09.733Z,17.90
2023-05-15T17:24:14.039Z,17.70
2023-05-15T17:26:16.519Z,17.60
2023-05-15T17:28:19.056Z,17.40
2023-05-15T17:30:21.823Z,17.30
2023-05-15T17:32:34.069Z,17.30
2023-05-15T17:34:38.282Z,17.20
2023-05-15T17:36:43.110Z,17.10
2023-05-15T17:38:45.710Z,17.00
2023-05-15T17:40:48.692Z,17.00
2023-05-15T17:42:51.247Z,16.90
2023-05-15T17:44:53.887Z,16.90
2023-05-15T17:46:56.610Z,16.80
2023-05-15T17:48:59.192Z,16.80
2023-05-15T17:51:01.781Z,16.80
2023-05-15T17:53:04.904Z,16.90
2023-05-15T17:55:08.681Z,16.90
2023-05-15T17:57:11.449Z,16.90
2023-05-15T17:59:14.119Z,16.90
2023-05-15T18:01:16.736Z,16.90
2023-05-15T18:03:19.635Z,16.70
2023-05-15T18:05:22.834Z,16.80
2023-05-15T18:07:25.457Z,16.80
2023-05-15T18:09:27.984Z,16.90
2023-05-15T18:11:30.513Z,16.80
2023-05-15T18:13:33.065Z,16.90
2023-05-15T18:15:35.741Z,16.80
2023-05-15T18:17:38.241Z,16.70
2023-05-15T18:19:42.632Z,16.70
2023-05-15T18:21:45.322Z,16.60
2023-05-15T18:23:47.953Z,16.50
2023-05-15T18:25:51.285Z,16.50
2023-05-15T18:27:55.160Z,16.50
2023-05-15T18:29:58.020Z,16.40
2023-05-15T18:32:00.705Z,16.30
2023-05-15T18:34:03.308Z,16.30
2023-05-15T18:36:07.586Z,16.30
2023-05-15T18:38:10.455Z,16.20
2023-05-15T18:40:13.238Z,16.10
2023-05-15T18:42:16.275Z,16.10
2023-05-15T18:44:18.731Z,16.00
2023-05-15T18:46:21.289Z,15.90
2023-05-15T18:48:24.005Z,15.90
2023-05-15T18:50:26.481Z,15.80
2023-05-15T18:52:29.055Z,15.80
2023-05-15T18:54:31.635Z,15.70
2023-05-15T18:56:34.127Z,15.60
2023-05-15T18:58:36.998Z,15.50
2023-05-15T19:00:39.621Z,15.40
2023-05-15T19:02:42.240Z,15.40
2023-05-15T19:04:44.960Z,15.30
2023-05-15T19:06:49.260Z,15.20
2023-05-15T19:08:51.785Z,15.10
2023-05-15T19:10:54.676Z,15.10
2023-05-15T19:12:57.388Z,15.10
2023-05-15T19:17:39.363Z,15.10
2023-05-15T19:20:13.080Z,15.00
2023-05-15T19:22:17.080Z,15.10
2023-05-15T19:24:32.010Z,15.00
2023-05-15T19:26:38.792Z,15.00
2023-05-15T19:29:02.166Z,14.90
2023-05-15T19:31:31.516Z,14.90
2023-05-15T19:34:00.135Z,14.90
2023-05-15T19:35:59.489Z,14.80
2023-05-15T19:38:22.118Z,14.80
2023-05-15T19:40:38.683Z,14.70
2023-05-15T19:43:14.702Z,14.70
2023-05-15T19:45:18.730Z,14.60
2023-05-15T19:47:46.634Z,14.60
2023-05-15T19:50:10.976Z,14.50
2023-05-15T19:52:41.917Z,14.50
2023-05-15T19:55:03.012Z,14.40
2023-05-15T19:57:25.449Z,14.40
2023-05-15T19:59:52.157Z,14.30
2023-05-15T20:01:57.361Z,14.30
2023-05-15T20:04:00.012Z,14.30
2023-05-15T20:06:03.029Z,14.30
2023-05-15T20:08:05.912Z,14.30
2023-05-15T20:10:09.829Z,14.20
2023-05-15T20:12:12.350Z,14.20
2023-05-15T20:14:14.975Z,14.20
2023-05-15T20:16:17.570Z,14.30
2023-05-15T20:18:21.367Z,14.20
2023-05-15T20:20:24.008Z,14.20
2023-05-15T20:22:26.623Z,14.20
2023-05-15T20:24:29.814Z,14.20
2023-05-15T20:26:32.312Z,14.20
2023-05-15T20:28:34.811Z,14.20
2023-05-15T20:30:37.294Z,14.20
2023-05-15T20:32:40.034Z,14.20
2023-05-15T20:34:45.183Z,14.20
2023-05-15T20:36:48.947Z,14.20
2023-05-15T20:38:51.944Z,14.20
2023-05-15T20:40:55.318Z,14.20
2023-05-15T20:42:58.636Z,14.20
2023-05-15T20:45:01.187Z,14.20
2023-05-15T20:47:03.815Z,14.20
2023-05-15T20:49:06.309Z,14.20
2023-05-15T20:51:08.832Z,14.10
2023-05-15T20:53:11.444Z,14.30
2023-05-15T20:55:15.379Z,14.10
2023-05-15T20:57:18.015Z,14.00
2023-05-15T20:59:20.507Z,14.00
2023-05-15T21:01:23.054Z,14.10
2023-05-15T21:03:25.624Z,14.10
2023-05-15T21:05:28.162Z,14.10
2023-05-15T21:07:31.157Z,14.00
2023-05-15T21:09:33.774Z,14.00
2023-05-15T21:11:36.289Z,14.00
2023-05-15T21:13:38.782Z,14.10
2023-05-15T21:15:41.291Z,14.00
2023-05-15T21:17:43.850Z,14.00
2023-05-15T21:19:47.706Z,14.00
2023-05-15T21:21:50.216Z,14.00
2023-05-15T21:23:52.740Z,13.90
2023-05-15T21:25:55.229Z,13.90
2023-05-15T21:27:57.751Z,13.80
2023-05-15T21:30:00.292Z,13.80
2023-05-15T21:32:03.001Z,13.80
2023-05-15T21:34:05.561Z,13.70
2023-05-15T21:36:08.476Z,13.70
2023-05-15T21:40:26.735Z,13.70
2023-05-15T21:42:30.126Z,13.70
2023-05-15T21:44:32.637Z,13.60
2023-05-15T21:46:35.194Z,13.70
2023-05-15T21:48:38.530Z,13.60
2023-05-15T21:50:41.179Z,13.60
2023-05-15T21:52:43.640Z,13.50
2023-05-15T21:54:46.331Z,13.50
2023-05-15T21:56:48.793Z,13.60
2023-05-15T21:58:52.855Z,13.50
2023-05-15T22:00:55.587Z,13.50
2023-05-15T22:02:58.152Z,13.40
2023-05-15T22:05:01.126Z,13.40
2023-05-15T22:07:04.146Z,13.40
2023-05-15T22:09:06.901Z,13.40
2023-05-15T22:11:09.913Z,13.30
2023-05-15T22:13:12.392Z,13.30
2023-05-15T22:15:16.150Z,13.30
2023-05-15T22:17:20.458Z,13.30
2023-05-15T22:19:32.597Z,13.30
2023-05-15T22:21:27.630Z,13.30
2023-05-15T22:23:30.928Z,13.40
2023-05-15T22:25:33.446Z,13.30
2023-05-15T22:27:36.114Z,13.30
2023-05-15T22:29:39.467Z,13.30
2023-05-15T22:31:42.089Z,13.20
2023-05-15T22:33:44.715Z,13.20
2023-05-15T22:35:47.211Z,13.20
2023-05-15T22:37:49.725Z,13.10
2023-05-15T22:39:52.973Z,13.20
2023-05-15T22:41:55.885Z,13.20
2023-05-15T22:43:58.709Z,13.20
2023-05-15T22:46:01.332Z,13.10
2023-05-15T22:48:05.020Z,13.10
2023-05-15T22:50:09.497Z,13.10
2023-05-15T22:52:13.640Z,13.10
2023-05-15T22:54:18.425Z,13.10
2023-05-15T22:56:21.303Z,13.10
2023-05-15T22:58:24.054Z,13.00
2023-05-15T23:00:27.184Z,13.10
2023-05-15T23:02:30.174Z,13.10
2023-05-15T23:04:32.688Z,13.10
2023-05-15T23:06:35.520Z,13.00
2023-05-15T23:08:38.044Z,13.00
2023-05-15T23:10:40.678Z,13.00
2023-05-15T23:12:43.217Z,13.00
2023-05-15T23:17:01.085Z,12.80
2023-05-15T23:19:03.774Z,12.80
2023-05-15T23:21:06.400Z,12.70
2023-05-15T23:23:09.056Z,12.70
2023-05-15T23:25:11.755Z,12.60
2023-05-15T23:27:14.387Z,12.50
2023-05-15T23:29:16.878Z,12.50
2023-05-15T23:31:19.502Z,12.40
2023-05-15T23:33:22.694Z,12.40
2023-05-15T23:35:25.359Z,12.40
2023-05-15T23:37:27.853Z,12.40
2023-05-15T23:39:30.964Z,12.20
2023-05-15T23:41:34.323Z,12.60
2023-05-15T23:43:37.496Z,12.00
2023-05-15T23:45:40.223Z,12.00
2023-05-15T23:47:43.263Z,11.90
2023-05-15T23:49:46.728Z,11.80
2023-05-15T23:51:50.156Z,11.70
2023-05-15T23:53:53.822Z,11.70
2023-05-15T23:55:57.160Z,11.60
2023-05-15T23:57:59.817Z,11.60
